Terminal Aerodrome Forecast
Issued by NWS

Home | Current Version | Previous Version | Text Only | Print | Product List | Glossary On
Versions: 1 2 3 4 5 6 7 8 9 10 11 12
000
FTUS45 KREV 301121
TAFMMH
TAF
KMMH 301121Z 3012/0112 VRB04KT P6SM SKC
     FM301700 11007KT P6SM SCT200
     FM302000 28012G22KT P6SM FEW070 SCT200
     FM010100 30014G23KT P6SM SCT200
     FM010700 29009G16KT P6SM FEW200=

USA.gov is the U.S. government's official web portal to all federal, state and local government web resources and services.